Terminal Aerodrome Forecast
Issued by NWS Twin Cities, MN

Home | Current Version | Previous Version | Graphics & Text | Print | Product List | Glossary On
Versions: 1 2 3 4 5 6 7 8 9 10 11 12 13 14 15
000
FTUS43 KMPX 251746
TAFSTC
TAF
KSTC 251746Z 2518/2618 32011KT P6SM OVC060
     FM252100 26008KT P6SM BKN060
     FM260200 23005KT P6SM VCSH SCT035 OVC050
     FM260800 22005KT P6SM VCSH BKN025
     FM261500 26009KT P6SM BKN040=

USA.gov is the U.S. government's official web portal to all federal, state and local government web resources and services.